Pagrindinis puslapis
METAR-TAF:

METAR-TAF

Oro uostai :

Larnaka, Kipras

platuma: 34-53N, ilguma: 033-38E, Aukštis: 2 m

Dabartinis oras

Ataskaita buvo paskelbta 34 minutes, ne 05:00 UTC
Vėjas 7 kt iš Šiaurės Vakarų
Temperatūra 12°C
Drėgmė 62%
Slėgis 1020 hPa
Matomumas 10 km arba daugiau
Su prošvaistėmis ne aukštis 7000 ft

METAR: LCLK 060500Z 32007KT 9999 BKN070 12/05 Q1020 NOSIG

Laikas: 07:34 (05:34 UTC)

Prognozė

Ataskaita buvo paskelbta 6 valandos ir 4 minutes, ne 23:30 UTC
Prognozė galioja nuo 06 metu 00 UTC su 06 metu 24 UTC
Vėjas 9 kt iš Šiaurės/Šiaurės Vakarų
Matomumas 10 km arba daugiau
Mažai debesys ne aukštis 3000 ft
Tapsmas
nuo 06 metu 07 UTC su 06 metu 09 UTC
Vėjas 12 kt iš Šiaurės/Šiaurės Rytų

TAF: LCLK 052330Z 0600/0624 33009KT 9999 FEW030 BECMG 0607/0609 03012KT

Orai ataskaitas ir orų prognozės (METAR, TAF).

turimą stotys yra geltonos ir raudonos taškus žemėlapyje.

Perkelti pele per norėdami pamatyti stoties vardą.

Tada spustelėkite, norėdami matyti oro stebėjimo ir prognozės.

Norėdami pakeisti žemėlapį: spustelėkite ant žalios mygtukų su juodo kryžiaus žemyn,; žalią mygtuką su brūkšneliu, jei norite nutolinti; arba žalių rodyklių gretimoms žemėlapius.


METAR-TAF: